createdAt,value
2023-07-17T00:01:31.473Z,100647.50
2023-07-17T00:03:59.727Z,100642.72
2023-07-17T00:06:27.825Z,100642.06
2023-07-17T00:08:56.189Z,100641.91
2023-07-17T00:11:24.613Z,100646.19
2023-07-17T00:13:55.585Z,100647.94
2023-07-17T00:16:24.270Z,100649.03
2023-07-17T00:18:52.547Z,100646.81
2023-07-17T00:21:21.868Z,100654.41
2023-07-17T00:23:50.210Z,100651.25
2023-07-17T00:26:18.255Z,100646.94
2023-07-17T00:28:46.710Z,100642.22
2023-07-17T00:31:16.315Z,100642.41
2023-07-17T00:33:44.786Z,100643.16
2023-07-17T00:36:12.833Z,100639.22
2023-07-17T00:38:41.106Z,100644.28
2023-07-17T00:41:09.172Z,100642.41
2023-07-17T00:43:37.554Z,100647.16
2023-07-17T00:46:05.850Z,100651.44
2023-07-17T00:48:35.534Z,100650.34
2023-07-17T00:51:04.987Z,100651.91
2023-07-17T00:53:34.570Z,100657.94
2023-07-17T00:56:02.601Z,100648.41
2023-07-17T00:58:31.003Z,100643.16
2023-07-17T01:00:59.438Z,100650.00
2023-07-17T01:03:27.812Z,100658.41
2023-07-17T01:05:58.929Z,100658.13
2023-07-17T01:08:27.251Z,100647.31
2023-07-17T01:10:56.678Z,100653.81
2023-07-17T01:13:24.966Z,100649.63
2023-07-17T01:15:53.325Z,100649.78
2023-07-17T01:18:22.141Z,100648.00
2023-07-17T01:20:50.537Z,100655.63
2023-07-17T01:23:20.121Z,100648.06
2023-07-17T01:25:48.219Z,100648.78
2023-07-17T01:28:16.588Z,100644.97
2023-07-17T01:30:44.603Z,100652.97
2023-07-17T01:33:12.919Z,100658.34
2023-07-17T01:35:41.049Z,100665.72
2023-07-17T01:38:09.635Z,100664.16
2023-07-17T01:40:38.954Z,100664.34
2023-07-17T01:43:07.891Z,100664.97
2023-07-17T01:45:35.959Z,100658.34
2023-07-17T01:48:04.481Z,100667.59
2023-07-17T01:50:32.546Z,100660.00
2023-07-17T01:53:00.775Z,100667.41
2023-07-17T01:55:28.875Z,100672.19
2023-07-17T01:58:00.730Z,100667.03
2023-07-17T02:00:28.795Z,100662.91
2023-07-17T02:02:57.090Z,100654.94
2023-07-17T02:05:25.261Z,100660.00
2023-07-17T02:07:53.519Z,100654.44
2023-07-17T02:10:21.565Z,100655.44
2023-07-17T02:12:49.841Z,100659.38
2023-07-17T02:15:19.422Z,100656.19
2023-07-17T02:17:47.773Z,100660.81
2023-07-17T02:20:15.861Z,100660.38
2023-07-17T02:22:44.213Z,100665.41
2023-07-17T02:25:13.088Z,100672.06
2023-07-17T02:27:41.362Z,100671.84
2023-07-17T02:30:09.880Z,100676.22
2023-07-17T02:32:39.713Z,100672.06
2023-07-17T02:35:08.099Z,100687.22
2023-07-17T02:37:36.724Z,100677.56
2023-07-17T02:40:11.910Z,100681.28
2023-07-17T02:42:40.321Z,100687.56
2023-07-17T02:45:09.417Z,100678.91
2023-07-17T02:47:39.153Z,100679.81
2023-07-17T02:50:08.375Z,100693.75
2023-07-17T02:52:37.561Z,100685.50
2023-07-17T02:55:06.384Z,100691.88
2023-07-17T02:57:35.557Z,100695.25
2023-07-17T03:00:05.920Z,100699.25
2023-07-17T03:02:34.306Z,100702.63
2023-07-17T03:05:05.743Z,100699.06
2023-07-17T03:07:34.342Z,100704.59
2023-07-17T03:10:02.386Z,100715.16
2023-07-17T03:12:30.746Z,100713.19
2023-07-17T03:14:59.622Z,100709.38
2023-07-17T03:17:28.203Z,100710.81
2023-07-17T03:19:56.181Z,100713.97
2023-07-17T03:22:25.843Z,100710.00
2023-07-17T03:24:53.956Z,100714.38
2023-07-17T03:27:22.643Z,100705.78
2023-07-17T03:29:50.653Z,100707.09
2023-07-17T03:32:19.023Z,100710.56
2023-07-17T03:34:47.000Z,100710.88
2023-07-17T03:37:16.556Z,100710.19
2023-07-17T03:39:45.914Z,100706.41
2023-07-17T03:42:15.481Z,100721.16
2023-07-17T03:44:43.592Z,100720.53
2023-07-17T03:47:12.120Z,100724.72
2023-07-17T03:49:40.528Z,100718.34
2023-07-17T03:52:09.133Z,100729.50
2023-07-17T03:54:37.176Z,100725.53
2023-07-17T03:57:07.253Z,100718.75
2023-07-17T03:59:49.832Z,100726.13
2023-07-17T04:02:22.169Z,100728.63
2023-07-17T04:04:51.416Z,100732.31
2023-07-17T04:07:19.957Z,100732.09
2023-07-17T04:09:48.188Z,100734.09
2023-07-17T04:12:18.437Z,100740.84
2023-07-17T04:14:46.597Z,100744.03
2023-07-17T04:17:14.957Z,100745.75
2023-07-17T04:19:43.237Z,100747.03
2023-07-17T04:22:11.481Z,100751.00
2023-07-17T04:24:39.507Z,100751.72
2023-07-17T04:27:07.858Z,100753.69
2023-07-17T04:29:37.654Z,100754.91
2023-07-17T04:32:07.981Z,100757.81
2023-07-17T04:34:36.040Z,100752.81
2023-07-17T04:37:04.720Z,100745.63
2023-07-17T04:39:34.071Z,100761.75
2023-07-17T04:42:05.959Z,100761.50
2023-07-17T04:44:34.032Z,100759.59
2023-07-17T04:47:05.771Z,100769.97
2023-07-17T04:49:34.128Z,100765.16
2023-07-17T04:52:02.454Z,100765.56
2023-07-17T04:54:30.540Z,100766.56
2023-07-17T04:56:58.885Z,100760.50
2023-07-17T04:59:27.178Z,100762.84
2023-07-17T05:01:55.561Z,100776.91
2023-07-17T05:04:26.256Z,100769.84
2023-07-17T05:06:54.588Z,100774.13
2023-07-17T05:09:22.987Z,100775.13
2023-07-17T05:11:52.084Z,100772.94
2023-07-17T05:14:20.108Z,100779.31
2023-07-17T05:16:48.533Z,100773.63
2023-07-17T05:19:16.897Z,100779.09
2023-07-17T05:21:46.821Z,100777.41
2023-07-17T05:24:14.934Z,100775.41
2023-07-17T05:26:44.404Z,100783.69
2023-07-17T05:29:12.474Z,100778.72
2023-07-17T05:31:41.362Z,100777.81
2023-07-17T05:34:09.366Z,100780.69
2023-07-17T05:36:37.641Z,100787.34
2023-07-17T05:39:08.593Z,100783.44
2023-07-17T05:41:37.693Z,100784.44
2023-07-17T05:44:05.806Z,100783.94
2023-07-17T05:46:34.305Z,100794.03
2023-07-17T05:49:02.444Z,100792.84
2023-07-17T05:51:30.977Z,100791.25
2023-07-17T05:53:59.965Z,100791.84
2023-07-17T05:56:29.568Z,100789.44
2023-07-17T05:58:57.650Z,100794.84
2023-07-17T06:01:25.958Z,100787.69
2023-07-17T06:03:55.431Z,100796.22
2023-07-17T06:06:23.922Z,100796.41
2023-07-17T06:08:52.110Z,100797.66
2023-07-17T06:11:20.422Z,100791.41
2023-07-17T06:13:49.882Z,100795.41
2023-07-17T06:16:19.547Z,100798.59
2023-07-17T06:18:47.653Z,100807.94
2023-07-17T06:21:16.121Z,100806.84
2023-07-17T06:23:44.561Z,100807.56
2023-07-17T06:26:12.872Z,100804.56
2023-07-17T06:28:40.887Z,100808.72
2023-07-17T06:31:10.643Z,100805.06
2023-07-17T06:33:38.747Z,100811.19
2023-07-17T06:36:07.028Z,100799.63
2023-07-17T06:38:35.082Z,100804.31
2023-07-17T06:41:04.562Z,100800.38
2023-07-17T06:43:32.640Z,100798.56
2023-07-17T06:46:01.095Z,100796.50
2023-07-17T06:48:30.532Z,100789.84
2023-07-17T06:50:58.877Z,100794.09
2023-07-17T06:53:26.899Z,100795.69
2023-07-17T06:55:58.657Z,100803.28
2023-07-17T06:58:26.732Z,100804.44
2023-07-17T07:00:58.405Z,100801.38
2023-07-17T07:03:28.096Z,100806.66
2023-07-17T07:05:58.720Z,100810.19
2023-07-17T07:08:27.455Z,100804.53
2023-07-17T07:10:56.929Z,100811.53
2023-07-17T07:13:25.564Z,100817.09
2023-07-17T07:15:54.189Z,100807.72
2023-07-17T07:18:22.708Z,100819.69
2023-07-17T07:20:52.535Z,100822.31
2023-07-17T07:23:22.355Z,100826.28
2023-07-17T07:25:50.782Z,100829.59
2023-07-17T07:28:18.761Z,100835.81
2023-07-17T07:30:47.001Z,100842.66
2023-07-17T07:33:15.144Z,100834.31
2023-07-17T07:35:45.240Z,100832.75
2023-07-17T07:38:13.282Z,100834.34
2023-07-17T07:40:42.889Z,100838.34
2023-07-17T07:43:10.918Z,100849.59
2023-07-17T07:45:39.239Z,100843.53
2023-07-17T07:48:07.981Z,100842.44
2023-07-17T07:50:36.328Z,100854.19
2023-07-17T07:53:04.609Z,100853.94
2023-07-17T07:55:32.968Z,100854.56
2023-07-17T07:58:02.695Z,100845.31
2023-07-17T08:00:31.303Z,100855.34
2023-07-17T08:02:59.415Z,100847.38
2023-07-17T08:05:27.874Z,100852.63
2023-07-17T08:07:55.893Z,100849.94
2023-07-17T08:10:25.295Z,100855.34
2023-07-17T08:12:53.356Z,100852.97
2023-07-17T08:15:23.064Z,100842.63
2023-07-17T08:17:51.638Z,100853.97
2023-07-17T08:20:20.011Z,100848.88
2023-07-17T08:22:49.543Z,100850.34
2023-07-17T08:25:18.063Z,100845.56
2023-07-17T08:27:46.192Z,100853.53
2023-07-17T08:30:14.752Z,100863.06
2023-07-17T08:32:44.182Z,100854.00
2023-07-17T08:35:12.714Z,100858.28
2023-07-17T08:37:40.794Z,100850.19
2023-07-17T08:40:10.905Z,100867.19
2023-07-17T08:42:39.784Z,100856.69
2023-07-17T08:45:09.461Z,100853.81
2023-07-17T08:47:37.749Z,100849.38
2023-07-17T08:50:09.232Z,100865.28
2023-07-17T08:52:37.498Z,100845.72
2023-07-17T08:55:06.750Z,100845.84
2023-07-17T08:57:35.710Z,100837.06
2023-07-17T09:00:05.898Z,100833.88
2023-07-17T09:02:34.289Z,100835.59
2023-07-17T09:05:04.695Z,100829.69
2023-07-17T09:07:34.209Z,100834.75
2023-07-17T09:10:15.833Z,100846.19
2023-07-17T09:12:44.662Z,100834.34
2023-07-17T09:15:17.208Z,100822.28
2023-07-17T09:17:46.094Z,100826.16
2023-07-17T09:20:16.524Z,100818.50
2023-07-17T09:22:46.267Z,100815.06
2023-07-17T09:25:15.941Z,100825.72
2023-07-17T09:27:46.070Z,100823.66
2023-07-17T09:30:16.198Z,100808.34
2023-07-17T09:32:45.252Z,100817.22
2023-07-17T09:35:14.300Z,100806.47
2023-07-17T09:37:45.606Z,100812.06
2023-07-17T09:40:20.539Z,100822.91
2023-07-17T09:42:54.580Z,100823.13
2023-07-17T09:45:23.030Z,100815.31
2023-07-17T09:47:51.734Z,100808.00
2023-07-17T09:50:21.298Z,100814.31
2023-07-17T09:52:51.463Z,100799.59
2023-07-17T09:55:22.501Z,100802.44
2023-07-17T09:57:53.340Z,100824.41
2023-07-17T10:00:25.160Z,100815.47
2023-07-17T10:02:58.396Z,100799.47
2023-07-17T10:05:29.326Z,100804.16
2023-07-17T10:07:58.307Z,100809.56
2023-07-17T10:10:28.088Z,100825.53
2023-07-17T10:12:57.530Z,100830.06
2023-07-17T10:15:26.228Z,100815.31
2023-07-17T10:17:58.819Z,100821.41
2023-07-17T10:20:28.765Z,100815.81
2023-07-17T10:22:57.009Z,100807.88
2023-07-17T10:25:31.483Z,100800.97
2023-07-17T10:28:01.178Z,100816.44
2023-07-17T10:30:31.443Z,100818.06
2023-07-17T10:33:07.678Z,100829.22
2023-07-17T10:35:50.525Z,100796.69
2023-07-17T10:38:20.020Z,100805.97
2023-07-17T10:40:49.716Z,100799.53
2023-07-17T10:43:19.993Z,100791.50
2023-07-17T10:45:49.716Z,100798.50
2023-07-17T10:48:21.757Z,100789.91
2023-07-17T10:50:52.676Z,100807.34
2023-07-17T10:53:21.655Z,100791.97
2023-07-17T10:55:51.481Z,100791.53
2023-07-17T10:58:20.923Z,100789.94
2023-07-17T11:00:49.750Z,100799.44
2023-07-17T11:03:24.083Z,100801.69
2023-07-17T11:05:55.919Z,100780.66
2023-07-17T11:08:26.703Z,100782.34
2023-07-17T11:10:57.249Z,100799.41
2023-07-17T11:13:31.960Z,100782.03
2023-07-17T11:16:09.375Z,100782.22
2023-07-17T11:18:47.956Z,100800.81
2023-07-17T11:21:17.832Z,100783.19
2023-07-17T11:23:48.903Z,100786.78
2023-07-17T11:26:20.670Z,100780.53
2023-07-17T11:28:53.287Z,100795.63
2023-07-17T11:31:22.945Z,100803.31
2023-07-17T11:33:52.583Z,100790.84
2023-07-17T11:36:26.347Z,100783.38
2023-07-17T11:39:03.947Z,100772.03
2023-07-17T11:41:44.165Z,100780.56
2023-07-17T11:44:12.367Z,100800.72
2023-07-17T11:46:41.940Z,100794.66
2023-07-17T11:49:11.842Z,100779.63
2023-07-17T11:51:42.599Z,100785.97
2023-07-17T11:54:11.041Z,100780.88
2023-07-17T11:56:42.273Z,100794.13
2023-07-17T11:59:25.516Z,100778.16
2023-07-17T12:01:54.114Z,100773.38
2023-07-17T12:04:24.819Z,100765.00
2023-07-17T12:06:55.272Z,100771.47
2023-07-17T12:09:24.684Z,100773.28
2023-07-17T12:11:53.140Z,100782.28
2023-07-17T12:14:22.713Z,100752.50
2023-07-17T12:16:51.365Z,100756.97
2023-07-17T12:19:20.719Z,100761.34
2023-07-17T12:21:50.156Z,100758.63
2023-07-17T12:24:18.314Z,100752.94
2023-07-17T12:26:46.918Z,100758.50
2023-07-17T12:29:14.988Z,100749.81
2023-07-17T12:31:44.775Z,100755.03
2023-07-17T12:34:13.016Z,100756.63
2023-07-17T12:36:41.453Z,100756.09
2023-07-17T12:39:13.965Z,100774.22
2023-07-17T12:41:42.515Z,100756.81
2023-07-17T12:44:10.823Z,100741.38
2023-07-17T12:46:39.396Z,100755.78
2023-07-17T12:49:09.032Z,100744.91
2023-07-17T12:51:37.576Z,100748.91
2023-07-17T12:54:06.834Z,100754.81
2023-07-17T12:56:35.061Z,100744.94
2023-07-17T12:59:03.522Z,100752.88
2023-07-17T13:01:32.028Z,100743.97
2023-07-17T13:04:01.381Z,100739.38
2023-07-17T13:06:31.311Z,100736.41
2023-07-17T13:09:01.036Z,100732.38
2023-07-17T13:11:29.536Z,100744.16
2023-07-17T13:13:58.180Z,100736.75
2023-07-17T13:16:26.325Z,100742.00
2023-07-17T13:18:57.174Z,100742.59
2023-07-17T13:21:26.906Z,100738.53
2023-07-17T13:23:57.091Z,100733.00
2023-07-17T13:26:27.610Z,100734.84
2023-07-17T13:28:56.309Z,100750.28
2023-07-17T13:31:34.284Z,100737.72
2023-07-17T13:34:02.957Z,100736.38
2023-07-17T13:39:18.105Z,100734.75
2023-07-17T13:41:51.592Z,100724.47
2023-07-17T13:44:22.272Z,100727.06
2023-07-17T13:46:50.898Z,100730.91
2023-07-17T13:49:19.446Z,100724.81
2023-07-17T13:51:49.094Z,100732.69
2023-07-17T13:54:21.692Z,100722.00
2023-07-17T13:59:21.556Z,100738.91
2023-07-17T14:01:53.761Z,100721.47
2023-07-17T14:04:23.868Z,100710.72
2023-07-17T14:06:53.823Z,100714.69
2023-07-17T14:09:24.285Z,100734.63
2023-07-17T14:11:53.239Z,100726.84
2023-07-17T14:14:23.303Z,100735.31
2023-07-17T14:16:53.599Z,100723.59
2023-07-17T14:19:24.087Z,100737.16
2023-07-17T14:21:54.105Z,100736.94
2023-07-17T14:24:27.651Z,100731.19
2023-07-17T14:26:56.696Z,100729.22
2023-07-17T14:29:26.020Z,100708.66
2023-07-17T14:31:55.015Z,100715.72
2023-07-17T14:34:27.261Z,100716.59
2023-07-17T14:36:55.542Z,100712.91
2023-07-17T14:39:23.952Z,100709.94
2023-07-17T14:41:53.479Z,100709.78
2023-07-17T14:44:24.626Z,100710.13
2023-07-17T14:46:53.067Z,100711.97
2023-07-17T14:49:21.357Z,100701.94
2023-07-17T14:51:49.932Z,100696.88
2023-07-17T14:54:18.128Z,100706.25
2023-07-17T14:56:47.180Z,100697.97
2023-07-17T14:59:17.521Z,100712.13
2023-07-17T15:01:46.192Z,100696.69
2023-07-17T15:04:14.822Z,100701.84
2023-07-17T15:06:44.252Z,100699.38
2023-07-17T15:09:12.637Z,100704.06
2023-07-17T15:11:41.002Z,100697.75
2023-07-17T15:14:20.905Z,100690.19
2023-07-17T15:16:51.279Z,100690.91
2023-07-17T15:19:19.876Z,100706.09
2023-07-17T15:21:48.293Z,100712.00
2023-07-17T15:24:16.480Z,100709.16
2023-07-17T15:26:45.110Z,100706.66
2023-07-17T15:29:13.382Z,100704.53
2023-07-17T15:31:42.327Z,100713.59
2023-07-17T15:34:11.816Z,100701.13
2023-07-17T15:36:40.087Z,100696.75
2023-07-17T15:39:08.218Z,100700.84
2023-07-17T15:41:36.490Z,100694.59
2023-07-17T15:44:04.831Z,100689.78
2023-07-17T15:46:33.167Z,100699.88
2023-07-17T15:49:01.218Z,100704.41
2023-07-17T15:51:30.887Z,100700.50
2023-07-17T15:53:58.984Z,100699.50
2023-07-17T15:56:27.360Z,100704.66
2023-07-17T15:58:55.435Z,100702.16
2023-07-17T16:01:23.877Z,100716.84
2023-07-17T16:03:52.076Z,100723.53
2023-07-17T16:06:20.650Z,100707.53
2023-07-17T16:08:50.265Z,100707.13
2023-07-17T16:11:18.606Z,100722.03
2023-07-17T16:13:46.701Z,100723.69
2023-07-17T16:16:15.043Z,100712.84
2023-07-17T16:18:43.057Z,100725.50
2023-07-17T16:21:11.325Z,100713.91
2023-07-17T16:23:39.394Z,100731.97
2023-07-17T16:26:09.122Z,100726.81
2023-07-17T16:28:37.250Z,100738.97
2023-07-17T16:31:05.777Z,100724.69
2023-07-17T16:33:34.153Z,100726.75
2023-07-17T16:36:02.416Z,100735.47
2023-07-17T16:38:30.510Z,100728.50
2023-07-17T16:40:58.839Z,100724.41
2023-07-17T16:43:28.328Z,100734.06
2023-07-17T16:45:56.645Z,100722.41
2023-07-17T16:48:24.773Z,100732.94
2023-07-17T16:50:53.041Z,100728.50
2023-07-17T16:53:21.155Z,100731.19
2023-07-17T16:55:49.503Z,100724.28
2023-07-17T16:58:17.627Z,100729.50
2023-07-17T17:00:47.363Z,100732.03
2023-07-17T17:03:15.499Z,100731.06
2023-07-17T17:05:43.934Z,100723.47
2023-07-17T17:08:11.946Z,100732.22
2023-07-17T17:10:40.216Z,100727.56
2023-07-17T17:13:08.293Z,100722.72
2023-07-17T17:15:36.672Z,100740.16
2023-07-17T17:18:06.315Z,100741.19
2023-07-17T17:20:34.805Z,100750.72
2023-07-17T17:23:02.908Z,100745.44
2023-07-17T17:25:31.228Z,100757.03
2023-07-17T17:27:59.287Z,100751.41
2023-07-17T17:30:28.286Z,100752.59
2023-07-17T17:32:56.549Z,100756.22
2023-07-17T17:35:26.386Z,100759.13
2023-07-17T17:37:54.450Z,100753.00
2023-07-17T17:40:22.700Z,100769.41
2023-07-17T17:42:50.763Z,100770.56
2023-07-17T17:45:19.046Z,100765.78
2023-07-17T17:47:47.053Z,100752.22
2023-07-17T17:50:17.615Z,100760.22
2023-07-17T17:52:47.006Z,100759.38
2023-07-17T17:55:15.317Z,100773.34
2023-07-17T17:57:43.378Z,100765.69
2023-07-17T18:00:13.074Z,100765.34
2023-07-17T18:02:50.270Z,100765.94
2023-07-17T18:05:18.694Z,100771.94
2023-07-17T18:07:48.112Z,100768.78
2023-07-17T18:10:16.586Z,100772.88
2023-07-17T18:12:44.687Z,100767.78
2023-07-17T18:15:12.996Z,100779.59
2023-07-17T18:17:41.157Z,100782.31
2023-07-17T18:20:11.773Z,100792.25
2023-07-17T18:22:40.072Z,100791.66
2023-07-17T18:25:12.844Z,100797.41
2023-07-17T18:27:41.586Z,100789.59
2023-07-17T18:30:10.448Z,100789.06
2023-07-17T18:32:38.609Z,100801.84
2023-07-17T18:35:07.884Z,100805.06
2023-07-17T18:37:36.334Z,100804.84
2023-07-17T18:40:09.448Z,100809.78
2023-07-17T18:42:38.893Z,100803.06
2023-07-17T18:45:11.258Z,100811.75
2023-07-17T18:47:40.142Z,100801.47
2023-07-17T18:50:09.419Z,100819.16
2023-07-17T18:52:37.630Z,100818.22
2023-07-17T18:55:07.164Z,100824.22
2023-07-17T18:57:35.289Z,100808.50
2023-07-17T19:00:07.565Z,100816.44
2023-07-17T19:02:35.715Z,100822.97
2023-07-17T19:05:04.836Z,100827.94
2023-07-17T19:07:32.879Z,100823.78
2023-07-17T19:10:01.273Z,100831.56
2023-07-17T19:12:29.515Z,100837.88
2023-07-17T19:14:57.838Z,100834.13
2023-07-17T19:17:27.338Z,100839.56
2023-07-17T19:19:55.689Z,100845.59
2023-07-17T19:22:23.976Z,100851.16
2023-07-17T19:24:52.256Z,100851.97
2023-07-17T19:27:20.275Z,100852.97
2023-07-17T19:29:48.595Z,100857.50
2023-07-17T19:32:17.913Z,100857.50
2023-07-17T19:34:47.616Z,100858.19
2023-07-17T19:37:15.885Z,100865.66
2023-07-17T19:39:44.296Z,100868.25
2023-07-17T19:42:12.350Z,100860.00
2023-07-17T19:44:40.765Z,100866.56
2023-07-17T19:47:08.961Z,100871.00
2023-07-17T19:49:37.327Z,100873.38
2023-07-17T19:52:07.335Z,100878.97
2023-07-17T19:54:35.641Z,100874.22
2023-07-17T19:57:03.735Z,100871.25
2023-07-17T19:59:31.997Z,100884.78
2023-07-17T20:02:00.010Z,100878.25
2023-07-17T20:04:28.494Z,100881.44
2023-07-17T20:06:56.597Z,100884.78
2023-07-17T20:09:26.396Z,100888.97
2023-07-17T20:11:54.432Z,100889.06
2023-07-17T20:14:22.978Z,100899.06
2023-07-17T20:16:53.715Z,100890.94
2023-07-17T20:19:22.039Z,100907.03
2023-07-17T20:21:50.100Z,100902.78
2023-07-17T20:24:18.442Z,100899.91
2023-07-17T20:26:47.965Z,100905.00
2023-07-17T20:29:16.262Z,100904.56
2023-07-17T20:31:44.460Z,100910.56
2023-07-17T20:34:12.903Z,100915.53
2023-07-17T20:36:40.952Z,100917.94
2023-07-17T20:39:10.538Z,100922.69
2023-07-17T20:41:38.722Z,100920.97
2023-07-17T20:44:08.423Z,100925.13
2023-07-17T20:46:36.601Z,100932.91
2023-07-17T20:49:05.150Z,100932.91
2023-07-17T20:51:35.064Z,100934.34
2023-07-17T20:54:03.444Z,100926.22
2023-07-17T20:56:31.782Z,100931.63
2023-07-17T20:59:00.197Z,100927.34
2023-07-17T21:01:29.938Z,100943.91
2023-07-17T21:03:59.754Z,100944.22
2023-07-17T21:06:28.586Z,100947.88
2023-07-17T21:08:57.330Z,100947.19
2023-07-17T21:11:25.847Z,100958.31
2023-07-17T21:13:54.363Z,100950.84
2023-07-17T21:16:22.550Z,100953.06
2023-07-17T21:18:52.173Z,100957.81
2023-07-17T21:21:20.347Z,100957.34
2023-07-17T21:23:48.885Z,100958.47
2023-07-17T21:26:16.936Z,100962.44
2023-07-17T21:28:58.170Z,100963.88
2023-07-17T21:31:26.430Z,100964.81
2023-07-17T21:33:56.259Z,100964.81
2023-07-17T21:36:24.392Z,100972.78
2023-07-17T21:38:52.781Z,100981.38
2023-07-17T21:41:21.147Z,100980.44
2023-07-17T21:43:50.669Z,100984.25
2023-07-17T21:46:19.070Z,100979.81
2023-07-17T21:48:47.378Z,100979.94
2023-07-17T21:51:20.614Z,100987.44
2023-07-17T21:53:49.149Z,100979.78
2023-07-17T21:56:17.870Z,100984.72
2023-07-17T21:58:46.140Z,100986.63
2023-07-17T22:01:14.672Z,100993.75
2023-07-17T22:03:43.160Z,100989.16
2023-07-17T22:06:31.316Z,100994.38
2023-07-17T22:08:59.671Z,100992.53
2023-07-17T22:11:27.753Z,100997.25
2023-07-17T22:13:56.165Z,100997.72
2023-07-17T22:16:24.800Z,100997.28
2023-07-17T22:18:53.095Z,100996.66
2023-07-17T22:21:21.582Z,100997.97
2023-07-17T22:23:51.575Z,101002.22
2023-07-17T22:26:19.639Z,100996.16
2023-07-17T22:28:48.096Z,100994.47
2023-07-17T22:31:16.387Z,100994.81
2023-07-17T22:33:44.814Z,100999.25
2023-07-17T22:36:12.825Z,101001.31
2023-07-17T22:38:41.101Z,101013.91
2023-07-17T22:41:10.454Z,101013.09
2023-07-17T22:43:38.833Z,101017.41
2023-07-17T22:46:25.641Z,101014.53
2023-07-17T22:48:53.971Z,101021.34
2023-07-17T22:51:23.165Z,101011.88
2023-07-17T22:53:52.250Z,101016.00
2023-07-17T22:56:22.159Z,101012.13
2023-07-17T22:58:50.455Z,101025.03
2023-07-17T23:01:18.751Z,101024.38
2023-07-17T23:03:48.105Z,101029.91
2023-07-17T23:06:16.867Z,101026.84
2023-07-17T23:08:45.216Z,101033.44
2023-07-17T23:11:13.285Z,101035.63
2023-07-17T23:13:42.908Z,101030.81
2023-07-17T23:16:11.077Z,101038.41
2023-07-17T23:18:39.433Z,101036.16
2023-07-17T23:21:07.537Z,101037.03
2023-07-17T23:23:54.129Z,101041.44
2023-07-17T23:26:22.566Z,101048.41
2023-07-17T23:28:52.388Z,101029.63
2023-07-17T23:31:20.842Z,101043.34
2023-07-17T23:33:49.616Z,101044.88
2023-07-17T23:36:17.703Z,101046.44
2023-07-17T23:38:46.201Z,101043.16
2023-07-17T23:41:14.251Z,101056.38
2023-07-17T23:43:42.660Z,101057.00
2023-07-17T23:46:12.686Z,101057.38
2023-07-17T23:48:41.029Z,101057.44
2023-07-17T23:51:09.059Z,101059.03
2023-07-17T23:53:37.358Z,101054.50
2023-07-17T23:56:06.045Z,101058.00
2023-07-17T23:58:34.473Z,101060.81
